createdAt,value
2019-04-28T00:03:22.879Z,21.73
2019-04-28T00:05:51.819Z,22.60
2019-04-28T00:08:20.942Z,20.32
2019-04-28T00:10:53.147Z,20.92
2019-04-28T00:13:21.169Z,24.20
2019-04-28T00:15:51.493Z,22.85
2019-04-28T00:18:21.965Z,22.40
2019-04-28T00:21:06.077Z,20.20
2019-04-28T00:26:36.688Z,22.27
2019-04-28T00:29:05.296Z,19.52
2019-04-28T00:31:33.911Z,24.00
2019-04-28T00:34:02.476Z,20.48
2019-04-28T00:36:33.656Z,21.02
2019-04-28T00:39:05.197Z,17.77
2019-04-28T00:41:34.314Z,22.17
2019-04-28T00:44:06.433Z,22.93
2019-04-28T00:46:37.085Z,21.65
2019-04-28T00:49:06.036Z,22.13
2019-04-28T00:51:37.561Z,20.82
2019-04-28T00:54:06.470Z,24.07
2019-04-28T00:56:35.047Z,24.37
2019-04-28T00:59:07.017Z,20.60
2019-04-28T01:01:47.734Z,25.77
2019-04-28T01:04:17.850Z,30.52
2019-04-28T01:06:48.153Z,22.85
2019-04-28T01:09:16.743Z,22.52
2019-04-28T01:11:51.451Z,21.85
2019-04-28T01:14:21.451Z,22.05
2019-04-28T01:16:59.838Z,30.45
2019-04-28T01:19:32.130Z,25.17
2019-04-28T01:22:15.475Z,24.63
2019-04-28T01:24:47.052Z,29.72
2019-04-28T01:27:50.520Z,23.30
2019-04-28T01:30:40.177Z,25.17
2019-04-28T01:33:15.737Z,21.07
2019-04-28T01:35:46.687Z,19.92
2019-04-28T01:38:15.409Z,27.87
2019-04-28T01:40:44.350Z,28.42
2019-04-28T01:43:14.837Z,27.37
2019-04-28T01:45:43.794Z,28.52
2019-04-28T01:48:12.622Z,27.42
2019-04-28T01:50:41.180Z,26.42
2019-04-28T01:53:10.089Z,27.80
2019-04-28T01:55:39.563Z,27.87
2019-04-28T01:58:09.617Z,26.30
2019-04-28T02:00:40.520Z,32.42
2019-04-28T02:03:10.393Z,27.55
2019-04-28T02:05:40.538Z,32.85
2019-04-28T02:08:10.186Z,32.15
2019-04-28T02:10:41.019Z,30.40
2019-04-28T02:13:11.389Z,31.52
2019-04-28T02:15:43.507Z,32.55
2019-04-28T02:18:15.511Z,33.65
2019-04-28T02:20:45.937Z,30.27
2019-04-28T02:23:20.234Z,31.82
2019-04-28T02:25:49.771Z,32.83
2019-04-28T02:28:20.804Z,32.63
2019-04-28T02:30:53.949Z,29.23
2019-04-28T02:33:24.361Z,33.33
2019-04-28T02:35:53.281Z,32.00
2019-04-28T02:38:27.764Z,35.68
2019-04-28T02:40:56.510Z,30.35
2019-04-28T02:43:30.646Z,28.92
2019-04-28T02:46:00.661Z,36.50
2019-04-28T02:48:32.563Z,29.05
2019-04-28T02:51:24.086Z,27.93
2019-04-28T02:53:53.226Z,29.50
2019-04-28T02:56:22.181Z,29.10
2019-04-28T02:58:51.142Z,27.17
2019-04-28T03:01:26.145Z,31.02
2019-04-28T03:03:53.425Z,25.37
2019-04-28T03:06:23.697Z,32.10
2019-04-28T03:08:52.303Z,29.72
2019-04-28T03:11:21.186Z,29.52
2019-04-28T03:13:51.100Z,32.78
2019-04-28T03:16:22.893Z,29.85
2019-04-28T03:18:51.498Z,34.80
2019-04-28T03:21:21.429Z,34.18
2019-04-28T03:23:51.649Z,23.20
2019-04-28T03:26:31.118Z,27.37
2019-04-28T03:29:32.353Z,24.87
2019-04-28T03:32:30.600Z,25.92
2019-04-28T03:34:46.519Z,22.40
2019-04-28T03:37:17.972Z,25.12
2019-04-28T03:39:50.414Z,32.08
2019-04-28T03:42:21.857Z,34.63
2019-04-28T03:44:51.662Z,28.05
2019-04-28T03:47:21.342Z,30.85
2019-04-28T03:49:51.517Z,33.80
2019-04-28T03:52:21.089Z,27.98
2019-04-28T03:54:51.083Z,26.87
2019-04-28T03:57:22.147Z,28.55
2019-04-28T03:59:51.592Z,26.30
2019-04-28T04:02:23.518Z,21.48
2019-04-28T04:04:53.923Z,31.15
2019-04-28T04:07:22.512Z,28.07
2019-04-28T04:10:01.968Z,27.42
2019-04-28T04:12:45.054Z,24.30
2019-04-28T04:15:43.207Z,25.73
2019-04-28T04:18:16.314Z,32.33
2019-04-28T04:20:44.908Z,24.98
2019-04-28T04:23:16.047Z,27.95
2019-04-28T04:25:46.196Z,25.90
2019-04-28T04:28:14.831Z,25.27
2019-04-28T04:30:43.601Z,27.20
2019-04-28T04:33:12.747Z,29.95
2019-04-28T04:35:43.727Z,21.15
2019-04-28T04:38:14.330Z,25.62
2019-04-28T04:40:42.909Z,24.47
2019-04-28T04:43:11.680Z,20.90
2019-04-28T04:45:40.693Z,21.90
2019-04-28T04:48:13.065Z,24.45
2019-04-28T04:50:43.096Z,26.90
2019-04-28T04:53:12.293Z,29.18
2019-04-28T04:55:43.015Z,20.12
2019-04-28T04:58:11.771Z,22.40
2019-04-28T05:00:53.087Z,31.75
2019-04-28T05:03:25.440Z,17.40
2019-04-28T05:05:54.342Z,23.75
2019-04-28T05:08:23.564Z,22.93
2019-04-28T05:10:53.506Z,24.67
2019-04-28T05:13:22.457Z,20.00
2019-04-28T05:15:52.655Z,23.27
2019-04-28T05:18:22.001Z,23.57
2019-04-28T05:20:52.657Z,19.48
2019-04-28T05:23:36.689Z,21.20
2019-04-28T05:28:37.004Z,24.40
2019-04-28T05:31:13.542Z,19.32
2019-04-28T05:33:42.065Z,21.20
2019-04-28T05:36:12.770Z,25.27
2019-04-28T05:38:42.192Z,23.83
2019-04-28T05:41:12.210Z,20.68
2019-04-28T05:43:40.987Z,17.23
2019-04-28T05:46:10.663Z,27.15
2019-04-28T05:48:59.966Z,23.83
2019-04-28T05:51:33.155Z,21.77
2019-04-28T05:54:13.183Z,21.62
2019-04-28T05:56:49.534Z,20.37
2019-04-28T05:59:41.682Z,17.98
2019-04-28T06:02:21.257Z,17.77
2019-04-28T06:04:49.487Z,20.72
2019-04-28T06:07:25.323Z,17.00
2019-04-28T06:09:55.922Z,17.23
2019-04-28T06:12:26.837Z,19.35
2019-04-28T06:14:55.422Z,14.90
2019-04-28T06:17:27.226Z,19.37
2019-04-28T06:19:57.338Z,18.35
2019-04-28T06:22:27.640Z,30.25
2019-04-28T06:24:56.273Z,20.65
2019-04-28T06:27:26.344Z,18.20
2019-04-28T06:29:54.953Z,20.20
2019-04-28T06:32:24.028Z,17.17
2019-04-28T06:34:52.958Z,16.82
2019-04-28T06:37:21.525Z,19.40
2019-04-28T06:39:52.377Z,21.82
2019-04-28T06:42:20.925Z,18.12
2019-04-28T06:44:49.852Z,15.50
2019-04-28T06:47:22.416Z,17.90
2019-04-28T06:49:51.001Z,24.75
2019-04-28T06:52:21.685Z,15.72
2019-04-28T06:54:51.641Z,25.10
2019-04-28T06:57:20.383Z,21.35
2019-04-28T06:59:49.319Z,24.35
2019-04-28T07:02:17.866Z,21.07
2019-04-28T07:04:46.843Z,19.92
2019-04-28T07:07:16.993Z,21.68
2019-04-28T07:09:45.956Z,26.75
2019-04-28T07:12:18.836Z,29.27
2019-04-28T07:14:48.986Z,26.85
2019-04-28T07:17:21.099Z,36.08
2019-04-28T07:19:57.342Z,23.15
2019-04-28T07:22:27.831Z,27.05
2019-04-28T07:24:56.563Z,24.80
2019-04-28T07:27:25.154Z,22.27
2019-04-28T07:29:55.386Z,25.30
2019-04-28T07:32:27.576Z,26.80
2019-04-28T07:34:58.196Z,24.27
2019-04-28T07:37:27.109Z,22.80
2019-04-28T07:39:56.837Z,23.85
2019-04-28T07:42:31.923Z,24.87
2019-04-28T07:45:00.487Z,19.73
2019-04-28T07:47:29.425Z,33.67
2019-04-28T07:50:03.850Z,31.57
2019-04-28T07:52:53.417Z,25.37
2019-04-28T07:55:26.000Z,25.77
2019-04-28T07:58:05.178Z,26.40
2019-04-28T08:00:33.785Z,25.45
2019-04-28T08:03:02.379Z,28.40
2019-04-28T08:05:31.170Z,29.55
2019-04-28T08:08:01.115Z,31.10
2019-04-28T08:10:29.863Z,26.93
2019-04-28T08:12:58.793Z,27.45
2019-04-28T08:15:30.202Z,22.13
2019-04-28T08:17:58.801Z,23.90
2019-04-28T08:20:27.616Z,28.05
2019-04-28T08:22:56.183Z,18.37
2019-04-28T08:25:27.204Z,21.48
2019-04-28T08:27:56.117Z,27.65
2019-04-28T08:30:24.974Z,20.23
2019-04-28T08:33:01.440Z,21.57
2019-04-28T08:35:30.220Z,29.42
2019-04-28T08:37:59.103Z,17.35
2019-04-28T08:40:28.323Z,23.50
2019-04-28T08:42:57.272Z,25.00
2019-04-28T08:45:25.994Z,20.00
2019-04-28T08:47:54.987Z,22.52
2019-04-28T08:50:25.100Z,19.67
2019-04-28T08:52:55.374Z,21.93
2019-04-28T08:55:23.937Z,25.85
2019-04-28T08:57:52.852Z,23.60
2019-04-28T09:00:21.437Z,25.57
2019-04-28T09:02:50.916Z,15.43
2019-04-28T09:05:21.372Z,20.37
2019-04-28T09:07:50.441Z,23.73
2019-04-28T09:10:20.486Z,17.80
2019-04-28T09:12:52.882Z,18.77
2019-04-28T09:15:21.651Z,18.42
2019-04-28T09:17:50.235Z,18.60
2019-04-28T09:20:21.281Z,22.02
2019-04-28T09:22:49.874Z,18.42
2019-04-28T09:25:18.443Z,21.62
2019-04-28T09:27:47.336Z,22.90
2019-04-28T09:30:15.931Z,17.92
2019-04-28T09:32:44.918Z,16.15
2019-04-28T09:35:14.091Z,16.80
2019-04-28T09:37:42.782Z,12.90
2019-04-28T09:40:16.344Z,23.80
2019-04-28T09:42:57.377Z,23.42
2019-04-28T09:45:33.662Z,29.07
2019-04-28T09:48:02.424Z,25.92
2019-04-28T09:50:31.151Z,31.15
2019-04-28T09:53:03.601Z,22.87
2019-04-28T09:55:32.597Z,22.32
2019-04-28T09:58:04.256Z,20.95
2019-04-28T10:00:33.565Z,19.02
2019-04-28T10:03:02.158Z,17.02
2019-04-28T10:05:30.749Z,14.20
2019-04-28T10:07:59.334Z,15.98
2019-04-28T10:10:28.095Z,21.35
2019-04-28T10:12:58.040Z,18.00
2019-04-28T10:15:26.626Z,16.93
2019-04-28T10:17:57.396Z,16.40
2019-04-28T10:20:26.496Z,22.73
2019-04-28T10:22:55.074Z,21.40
2019-04-28T10:25:25.371Z,30.32
2019-04-28T10:27:56.968Z,24.50
2019-04-28T10:30:25.527Z,28.30
2019-04-28T10:32:54.468Z,25.12
2019-04-28T10:35:24.417Z,23.98
2019-04-28T10:37:53.358Z,26.33
2019-04-28T10:40:43.270Z,21.12
2019-04-28T10:43:11.849Z,25.48
2019-04-28T10:45:47.572Z,21.62
2019-04-28T10:48:18.152Z,25.70
2019-04-28T10:50:51.490Z,18.42
2019-04-28T10:53:22.384Z,14.03
2019-04-28T10:55:53.268Z,13.03
2019-04-28T10:58:23.590Z,15.15
2019-04-28T11:00:59.525Z,14.20
2019-04-28T11:03:30.627Z,15.65
2019-04-28T11:05:59.313Z,16.07
2019-04-28T11:08:40.732Z,17.50
2019-04-28T11:11:16.743Z,15.72
2019-04-28T11:13:45.767Z,14.30
2019-04-28T11:16:17.427Z,17.62
2019-04-28T11:18:48.072Z,19.25
2019-04-28T11:21:19.049Z,16.27
2019-04-28T11:23:49.230Z,11.65
2019-04-28T11:26:17.783Z,17.10
2019-04-28T11:28:46.951Z,10.65
2019-04-28T11:31:16.989Z,12.00
2019-04-28T11:33:52.385Z,9.68
2019-04-28T11:36:24.209Z,15.72
2019-04-28T11:38:53.000Z,14.30
2019-04-28T11:41:22.085Z,15.20
2019-04-28T11:43:52.816Z,12.18
2019-04-28T11:46:22.231Z,16.15
2019-04-28T11:48:53.861Z,16.35
2019-04-28T11:51:22.414Z,15.78
2019-04-28T11:53:51.359Z,14.93
2019-04-28T11:56:20.251Z,12.20
2019-04-28T11:58:50.198Z,16.17
2019-04-28T12:01:19.907Z,16.90
2019-04-28T12:03:51.560Z,15.13
2019-04-28T12:06:22.158Z,13.70
2019-04-28T12:08:53.554Z,16.87
2019-04-28T12:11:29.858Z,17.95
2019-04-28T12:14:10.039Z,9.18
2019-04-28T12:17:14.522Z,11.43
2019-04-28T12:24:47.701Z,6.67
2019-04-28T12:27:16.664Z,8.13
2019-04-28T12:29:46.802Z,9.03
2019-04-28T12:32:15.555Z,5.17
2019-04-28T12:34:49.052Z,9.95
2019-04-28T12:37:26.305Z,7.37
2019-04-28T12:39:55.609Z,8.48
2019-04-28T12:42:26.490Z,6.78
2019-04-28T12:44:55.092Z,5.95
2019-04-28T12:47:23.838Z,5.28
2019-04-28T12:50:00.316Z,4.70
2019-04-28T12:52:28.889Z,5.30
2019-04-28T12:54:57.484Z,4.72
2019-04-28T12:57:28.256Z,2.95
2019-04-28T13:00:04.879Z,3.85
2019-04-28T13:03:03.595Z,5.03
2019-04-28T13:05:36.993Z,5.37
2019-04-28T13:08:08.471Z,5.62
2019-04-28T13:10:37.575Z,6.33
2019-04-28T13:13:08.277Z,3.10
2019-04-28T13:15:37.188Z,2.98
2019-04-28T13:18:08.006Z,4.75
2019-04-28T13:20:37.984Z,5.50
2019-04-28T13:23:06.562Z,11.28
2019-04-28T13:25:37.223Z,5.97
2019-04-28T13:28:07.113Z,7.10
2019-04-28T13:30:37.215Z,5.55
2019-04-28T13:33:07.339Z,3.37
2019-04-28T13:35:39.817Z,4.10
2019-04-28T13:38:09.703Z,3.45
2019-04-28T13:40:39.256Z,2.05
2019-04-28T13:43:08.190Z,4.75
2019-04-28T13:45:38.164Z,3.45
2019-04-28T13:48:07.096Z,4.75
2019-04-28T13:50:39.429Z,2.67
2019-04-28T13:53:08.381Z,2.80
2019-04-28T13:55:57.884Z,3.50
2019-04-28T13:58:29.815Z,2.35
2019-04-28T14:01:08.111Z,3.05
2019-04-28T14:03:56.115Z,3.92
2019-04-28T14:06:28.474Z,4.35
2019-04-28T14:09:01.017Z,5.28
2019-04-28T14:11:29.620Z,4.10
2019-04-28T14:13:58.612Z,3.85
2019-04-28T14:16:28.464Z,4.62
2019-04-28T14:18:57.517Z,4.45
2019-04-28T14:21:30.910Z,5.40
2019-04-28T14:23:59.472Z,6.70
2019-04-28T14:26:29.742Z,6.62
2019-04-28T14:28:58.306Z,5.67
2019-04-28T14:31:27.045Z,6.67
2019-04-28T14:33:55.625Z,5.78
2019-04-28T14:36:24.804Z,8.70
2019-04-28T14:38:55.096Z,5.20
2019-04-28T14:41:26.723Z,8.68
2019-04-28T14:43:57.060Z,6.35
2019-04-28T14:46:25.862Z,6.28
2019-04-28T14:48:55.034Z,8.13
2019-04-28T14:51:23.631Z,7.03
2019-04-28T14:53:54.568Z,7.72
2019-04-28T14:56:23.163Z,9.38
2019-04-28T14:58:53.414Z,5.78
2019-04-28T15:01:59.411Z,6.65
2019-04-28T15:04:50.709Z,4.37
2019-04-28T15:07:38.949Z,4.33
2019-04-28T15:10:20.635Z,5.08
2019-04-28T15:12:50.703Z,3.95
2019-04-28T15:15:21.136Z,5.00
2019-04-28T15:17:50.110Z,3.60
2019-04-28T15:20:19.142Z,4.40
2019-04-28T15:22:48.052Z,4.95
2019-04-28T15:25:20.834Z,3.33
2019-04-28T15:27:50.562Z,5.10
2019-04-28T15:30:20.831Z,4.00
2019-04-28T15:32:49.599Z,7.08
2019-04-28T15:35:18.534Z,6.10
2019-04-28T15:37:47.498Z,8.13
2019-04-28T15:40:18.601Z,7.20
2019-04-28T15:42:47.353Z,8.75
2019-04-28T15:45:16.073Z,8.48
2019-04-28T15:47:46.027Z,4.33
2019-04-28T15:50:14.588Z,5.20
2019-04-28T15:52:43.168Z,4.60
2019-04-28T15:55:14.307Z,6.25
2019-04-28T15:57:44.542Z,4.35
2019-04-28T16:00:14.355Z,4.15
2019-04-28T16:02:44.202Z,6.33
2019-04-28T16:05:14.715Z,7.75
2019-04-28T16:07:43.728Z,8.75
2019-04-28T16:10:12.617Z,7.62
2019-04-28T16:12:41.531Z,7.70
2019-04-28T16:15:10.824Z,6.10
2019-04-28T16:17:43.267Z,6.67
2019-04-28T16:20:13.927Z,6.65
2019-04-28T16:22:43.897Z,5.80
2019-04-28T16:25:12.449Z,5.28
2019-04-28T16:27:41.038Z,5.67
2019-04-28T16:30:10.018Z,6.60
2019-04-28T16:32:39.009Z,8.33
2019-04-28T16:35:08.012Z,4.87
2019-04-28T16:37:39.966Z,6.97
2019-04-28T16:40:09.942Z,6.08
2019-04-28T16:42:40.558Z,8.23
2019-04-28T16:45:12.280Z,4.70
2019-04-28T16:47:44.101Z,4.47
2019-04-28T16:50:12.677Z,3.45
2019-04-28T16:52:41.275Z,10.10
2019-04-28T16:55:14.884Z,5.53
2019-04-28T16:58:14.606Z,5.33
2019-04-28T17:01:01.990Z,5.40
2019-04-28T17:03:32.312Z,5.30
2019-04-28T17:06:04.108Z,3.42
2019-04-28T17:08:35.114Z,5.90
2019-04-28T17:11:05.808Z,6.00
2019-04-28T17:13:35.846Z,3.90
2019-04-28T17:16:04.449Z,7.03
2019-04-28T17:18:33.027Z,5.62
2019-04-28T17:21:03.604Z,5.50
2019-04-28T17:23:32.529Z,7.53
2019-04-28T17:26:01.515Z,5.65
2019-04-28T17:28:30.485Z,5.65
2019-04-28T17:31:02.662Z,5.30
2019-04-28T17:33:31.573Z,6.83
2019-04-28T17:36:00.145Z,6.90
2019-04-28T17:38:28.712Z,4.80
2019-04-28T17:40:59.811Z,5.03
2019-04-28T17:43:28.849Z,6.25
2019-04-28T17:45:58.272Z,8.15
2019-04-28T17:48:32.047Z,7.35
2019-04-28T17:51:00.607Z,6.05
2019-04-28T17:53:29.595Z,7.70
2019-04-28T17:55:58.344Z,5.37
2019-04-28T17:58:27.112Z,5.37
2019-04-28T18:01:15.225Z,7.95
2019-04-28T18:04:07.183Z,5.97
2019-04-28T18:06:37.417Z,4.25
2019-04-28T18:09:06.704Z,6.70
2019-04-28T18:11:37.469Z,5.35
2019-04-28T18:14:08.230Z,5.33
2019-04-28T18:16:51.590Z,4.37
2019-04-28T18:19:22.129Z,7.28
2019-04-28T18:21:51.042Z,6.95
2019-04-28T18:24:21.896Z,4.95
2019-04-28T18:26:54.034Z,5.28
2019-04-28T18:29:22.611Z,7.08
2019-04-28T18:32:08.778Z,6.50
2019-04-28T18:34:46.532Z,8.45
2019-04-28T18:37:34.565Z,7.58
2019-04-28T18:40:25.968Z,7.08
2019-04-28T18:43:10.353Z,10.05
2019-04-28T18:45:39.094Z,8.03
2019-04-28T18:48:09.147Z,6.12
2019-04-28T18:50:42.294Z,10.23
2019-04-28T18:53:12.556Z,7.08
2019-04-28T18:55:44.572Z,5.87
2019-04-28T18:58:13.740Z,9.50
2019-04-28T19:00:47.514Z,5.47
2019-04-28T19:05:47.702Z,7.67
2019-04-28T19:08:32.844Z,12.50
2019-04-28T19:11:20.343Z,7.75
2019-04-28T19:13:55.891Z,6.53
2019-04-28T19:16:45.621Z,7.78
2019-04-28T19:19:18.373Z,7.92
2019-04-28T19:21:59.082Z,9.20
2019-04-28T19:24:28.056Z,8.28
2019-04-28T19:26:56.815Z,10.40
2019-04-28T19:29:25.758Z,9.10
2019-04-28T19:31:54.507Z,10.13
2019-04-28T19:34:23.314Z,6.12
2019-04-28T19:36:51.895Z,11.80
2019-04-28T19:39:21.850Z,12.80
2019-04-28T19:41:50.415Z,7.70
2019-04-28T19:44:19.215Z,10.55
2019-04-28T19:46:48.192Z,11.00
2019-04-28T19:49:23.968Z,11.63
2019-04-28T19:51:59.542Z,8.95
2019-04-28T19:54:32.787Z,13.53
2019-04-28T19:57:09.738Z,13.45
2019-04-28T19:59:56.132Z,10.82
2019-04-28T20:02:30.882Z,9.38
2019-04-28T20:05:03.164Z,9.10
2019-04-28T20:07:34.462Z,13.70
2019-04-28T20:10:03.682Z,10.90
2019-04-28T20:12:34.260Z,10.28
2019-04-28T20:15:03.630Z,12.10
2019-04-28T20:17:32.538Z,11.25
2019-04-28T20:20:22.038Z,9.70
2019-04-28T20:22:51.216Z,9.58
2019-04-28T20:25:20.005Z,12.15
2019-04-28T20:27:49.005Z,14.38
2019-04-28T20:30:17.618Z,11.18
2019-04-28T20:32:48.481Z,8.15
2019-04-28T20:35:21.350Z,10.20
2019-04-28T20:37:59.977Z,11.25
2019-04-28T20:40:34.937Z,9.78
2019-04-28T20:43:17.687Z,9.78
2019-04-28T20:45:46.458Z,12.40
2019-04-28T20:48:15.167Z,11.15
2019-04-28T20:50:43.776Z,13.10
2019-04-28T20:53:12.352Z,12.28
2019-04-28T20:55:42.747Z,10.72
2019-04-28T20:58:12.791Z,11.38
2019-04-28T21:00:41.393Z,9.10
2019-04-28T21:03:10.069Z,10.68
2019-04-28T21:05:39.056Z,15.15
2019-04-28T21:08:07.604Z,12.07
2019-04-28T21:10:39.562Z,10.00
2019-04-28T21:13:11.538Z,10.08
2019-04-28T21:15:40.127Z,17.50
2019-04-28T21:18:12.164Z,14.00
2019-04-28T21:20:40.922Z,10.13
2019-04-28T21:23:11.916Z,13.32
2019-04-28T21:25:42.185Z,13.38
2019-04-28T21:28:10.740Z,10.98
2019-04-28T21:30:39.744Z,11.48
2019-04-28T21:33:09.862Z,14.10
2019-04-28T21:35:42.695Z,16.45
2019-04-28T21:38:11.285Z,10.10
2019-04-28T21:40:41.433Z,13.32
2019-04-28T21:43:26.850Z,11.78
2019-04-28T21:46:25.315Z,16.45
2019-04-28T21:48:58.931Z,10.80
2019-04-28T21:53:55.659Z,14.28
2019-04-28T21:56:24.417Z,16.17
2019-04-28T21:58:53.185Z,11.40
2019-04-28T22:01:22.293Z,9.83
2019-04-28T22:03:50.898Z,10.28
2019-04-28T22:06:19.832Z,11.60
2019-04-28T22:08:48.401Z,14.70
2019-04-28T22:11:18.919Z,15.25
2019-04-28T22:13:52.477Z,13.40
2019-04-28T22:16:21.045Z,17.23
2019-04-28T22:18:49.594Z,15.35
2019-04-28T22:21:20.089Z,16.30
2019-04-28T22:24:01.341Z,15.48
2019-04-28T22:26:46.496Z,15.30
2019-04-28T22:29:18.242Z,13.28
2019-04-28T22:31:49.110Z,14.13
2019-04-28T22:34:17.851Z,13.10
2019-04-28T22:36:48.531Z,17.50
2019-04-28T22:39:17.762Z,14.70
2019-04-28T22:41:46.573Z,15.25
2019-04-28T22:44:18.541Z,15.03
2019-04-28T22:46:52.095Z,11.38
2019-04-28T22:49:21.138Z,13.10
2019-04-28T22:51:51.453Z,13.88
2019-04-28T22:54:42.084Z,12.40
2019-04-28T22:57:35.896Z,9.15
2019-04-28T23:00:08.341Z,10.75
2019-04-28T23:02:38.220Z,14.93
2019-04-28T23:05:08.596Z,10.20
2019-04-28T23:07:37.954Z,16.12
2019-04-28T23:10:08.865Z,15.95
2019-04-28T23:12:38.813Z,13.18
2019-04-28T23:15:09.382Z,18.65
2019-04-28T23:17:38.345Z,11.15
2019-04-28T23:20:11.213Z,12.20
2019-04-28T23:22:47.022Z,17.05
2019-04-28T23:25:17.733Z,21.00
2019-04-28T23:27:46.710Z,12.28
2019-04-28T23:30:35.295Z,11.55
2019-04-28T23:33:04.632Z,11.30
2019-04-28T23:35:35.197Z,9.40
2019-04-28T23:38:04.167Z,12.53
2019-04-28T23:40:39.117Z,16.20
2019-04-28T23:43:15.778Z,14.87
2019-04-28T23:45:46.030Z,12.07
2019-04-28T23:48:15.083Z,11.63
2019-04-28T23:51:08.294Z,16.27
2019-04-28T23:53:58.870Z,15.32
2019-04-28T23:56:27.451Z,15.63
2019-04-28T23:58:56.011Z,12.60
